This is the latest recevied weather packets stored in our database for station/object N2PUI. If no packets are shown the sender has not sent any weather packets the latest 10 day(s).
| Time | Temp. | Humidity | Pressure | Rain* | Wind** | Luminosity | Snow |
|---|---|---|---|---|---|---|---|
| 1777941248 | 19.44° C | 43% | 1006.7 hPa | 0 mm | - | 0 W/m² | - |
| 1777940036 | 19.44° C | 42% | 1006.3 hPa | 0 mm | - | 0 W/m² | - |
| 1777939733 | 19.44° C | 42% | 1006.3 hPa | 0 mm | - | 0 W/m² | - |
| 1777939430 | 20° C | 42% | 1006.4 hPa | 0 mm | - | 3 W/m² | - |
| 1777934277 | 22.22° C | 33% | 1005.7 hPa | 0 mm | - | 138 W/m² | - |
| 1777933973 | 22.22° C | 31% | 1006 hPa | 0 mm | - | 157 W/m² | - |
| 1777933670 | 22.22° C | 32% | 1006 hPa | 0 mm | - | 173 W/m² | - |
| 1777933064 | 22.22° C | 33% | 1005.9 hPa | 0 mm | - | 192 W/m² | - |
| 1777932460 | 22.22° C | 32% | 1005.8 hPa | 0 mm | - | 246 W/m² | - |
| 1777931549 | 22.78° C | 33% | 1005.8 hPa | 0 mm | - | 294 W/m² | - |
| 1777931245 | 22.78° C | 34% | 1005.9 hPa | 0 mm | - | 300 W/m² | - |
| 1777930638 | 22.22° C | 33% | 1006 hPa | 0 mm | - | 302 W/m² | - |
| 1777930335 | 22.22° C | 35% | 1006 hPa | 0 mm | - | 276 W/m² | - |
| 1777930032 | 21.67° C | 33% | 1006 hPa | 0 mm | - | 280 W/m² | - |
| 1777929426 | 21.67° C | 35% | 1005.8 hPa | 0 mm | - | 344 W/m² | - |
| 1777929121 | 21.11° C | 36% | 1006.1 hPa | 0 mm | - | 150 W/m² | - |
| 1777928814 | 21.67° C | 35% | 1006.1 hPa | 0 mm | - | 115 W/m² | - |
| 1777927000 | 21.11° C | 38% | 1006.4 hPa | 0 mm | - | 514 W/m² | - |
| 1777926698 | 21.67° C | 35% | 1006.4 hPa | 0 mm | - | 329 W/m² | - |
| 1777926095 | 21.67° C | 37% | 1006.8 hPa | 0 mm | - | 589 W/m² | - |
| 1777925186 | 22.22° C | 36% | 1006.7 hPa | 0 mm | - | 133 W/m² | - |
| 1777924883 | 22.78° C | 35% | 1006.9 hPa | 0 mm | - | 209 W/m² | - |
| 1777921549 | 21.11° C | 38% | 1007.4 hPa | 0 mm | - | 747 W/m² | - |
| 1777919425 | 21.11° C | 39% | 1007.6 hPa | 0 mm | - | 527 W/m² | - |
| 1777918516 | 20.56° C | 43% | 1007.8 hPa | 0 mm | - | 909 W/m² | - |
* Rain latest hour (hover to see other rain measurements)
** Current wind speed in m/s (hover to see current wind gust speed)